sensor_id;sensor_type;location;lat;lon;timestamp;temperature;humidity
69503;SHT31;56704;54.242;12.442;2023-08-12T00:01:00;16.59;81.65
69503;SHT31;56704;54.242;12.442;2023-08-12T00:03:26;16.60;81.53
69503;SHT31;56704;54.242;12.442;2023-08-12T00:05:53;16.71;81.06
69503;SHT31;56704;54.242;12.442;2023-08-12T00:08:21;16.72;80.84
69503;SHT31;56704;54.242;12.442;2023-08-12T00:10:48;16.63;81.35
69503;SHT31;56704;54.242;12.442;2023-08-12T00:13:16;16.72;80.76
69503;SHT31;56704;54.242;12.442;2023-08-12T00:15:43;16.71;81.39
69503;SHT31;56704;54.242;12.442;2023-08-12T00:18:09;16.72;80.59
69503;SHT31;56704;54.242;12.442;2023-08-12T00:20:37;16.68;80.79
69503;SHT31;56704;54.242;12.442;2023-08-12T00:23:03;16.78;80.30
69503;SHT31;56704;54.242;12.442;2023-08-12T00:25:30;16.70;80.40
69503;SHT31;56704;54.242;12.442;2023-08-12T00:27:57;16.74;80.41
69503;SHT31;56704;54.242;12.442;2023-08-12T00:30:25;16.81;79.71
69503;SHT31;56704;54.242;12.442;2023-08-12T00:32:52;16.84;79.41
69503;SHT31;56704;54.242;12.442;2023-08-12T00:35:18;16.80;79.73
69503;SHT31;56704;54.242;12.442;2023-08-12T00:37:45;16.84;79.40
69503;SHT31;56704;54.242;12.442;2023-08-12T00:40:12;16.88;78.89
69503;SHT31;56704;54.242;12.442;2023-08-12T00:42:39;16.81;79.64
69503;SHT31;56704;54.242;12.442;2023-08-12T00:45:09;16.80;79.42
69503;SHT31;56704;54.242;12.442;2023-08-12T00:47:37;16.78;79.08
69503;SHT31;56704;54.242;12.442;2023-08-12T00:50:05;16.78;79.40
69503;SHT31;56704;54.242;12.442;2023-08-12T00:52:31;16.82;78.97
69503;SHT31;56704;54.242;12.442;2023-08-12T00:54:58;16.78;79.00
69503;SHT31;56704;54.242;12.442;2023-08-12T00:57:25;16.72;79.28
69503;SHT31;56704;54.242;12.442;2023-08-12T00:59:53;16.67;79.86
69503;SHT31;56704;54.242;12.442;2023-08-12T01:02:22;16.61;79.91
69503;SHT31;56704;54.242;12.442;2023-08-12T01:04:50;16.63;79.55
69503;SHT31;56704;54.242;12.442;2023-08-12T01:07:17;16.60;79.53
69503;SHT31;56704;54.242;12.442;2023-08-12T01:09:43;16.59;80.12
69503;SHT31;56704;54.242;12.442;2023-08-12T01:12:13;16.50;80.20
69503;SHT31;56704;54.242;12.442;2023-08-12T01:14:45;16.61;79.28
69503;SHT31;56704;54.242;12.442;2023-08-12T01:17:14;16.60;79.39
69503;SHT31;56704;54.242;12.442;2023-08-12T01:19:42;16.60;79.39
69503;SHT31;56704;54.242;12.442;2023-08-12T01:22:12;16.64;79.14
69503;SHT31;56704;54.242;12.442;2023-08-12T01:24:41;16.68;78.71
69503;SHT31;56704;54.242;12.442;2023-08-12T01:27:10;16.70;78.68
69503;SHT31;56704;54.242;12.442;2023-08-12T01:29:39;16.67;78.70
69503;SHT31;56704;54.242;12.442;2023-08-12T01:32:13;16.70;78.33
69503;SHT31;56704;54.242;12.442;2023-08-12T01:34:46;16.68;78.46
69503;SHT31;56704;54.242;12.442;2023-08-12T01:37:20;16.64;78.30
69503;SHT31;56704;54.242;12.442;2023-08-12T01:39:49;16.70;78.26
69503;SHT31;56704;54.242;12.442;2023-08-12T01:42:16;16.72;78.11
69503;SHT31;56704;54.242;12.442;2023-08-12T01:44:45;16.75;77.83
69503;SHT31;56704;54.242;12.442;2023-08-12T01:47:11;16.81;77.47
69503;SHT31;56704;54.242;12.442;2023-08-12T01:49:38;16.78;77.68
69503;SHT31;56704;54.242;12.442;2023-08-12T01:52:05;16.77;77.51
69503;SHT31;56704;54.242;12.442;2023-08-12T01:54:31;16.71;77.99
69503;SHT31;56704;54.242;12.442;2023-08-12T01:57:01;16.65;78.31
69503;SHT31;56704;54.242;12.442;2023-08-12T01:59:30;16.65;78.06
69503;SHT31;56704;54.242;12.442;2023-08-12T02:01:57;16.61;78.02
69503;SHT31;56704;54.242;12.442;2023-08-12T02:04:24;16.59;78.18
69503;SHT31;56704;54.242;12.442;2023-08-12T02:06:51;16.60;78.06
69503;SHT31;56704;54.242;12.442;2023-08-12T02:09:17;16.61;78.17
69503;SHT31;56704;54.242;12.442;2023-08-12T02:11:44;16.63;78.23
69503;SHT31;56704;54.242;12.442;2023-08-12T02:14:12;16.60;77.85
69503;SHT31;56704;54.242;12.442;2023-08-12T02:16:39;16.60;78.09
69503;SHT31;56704;54.242;12.442;2023-08-12T02:19:05;16.61;77.69
69503;SHT31;56704;54.242;12.442;2023-08-12T02:21:32;16.63;77.79
69503;SHT31;56704;54.242;12.442;2023-08-12T02:23:59;16.67;77.60
69503;SHT31;56704;54.242;12.442;2023-08-12T02:26:25;16.67;77.95
69503;SHT31;56704;54.242;12.442;2023-08-12T02:28:52;16.71;77.13
69503;SHT31;56704;54.242;12.442;2023-08-12T02:31:20;16.67;76.98
69503;SHT31;56704;54.242;12.442;2023-08-12T02:33:46;16.72;76.80
69503;SHT31;56704;54.242;12.442;2023-08-12T02:36:14;16.68;76.97
69503;SHT31;56704;54.242;12.442;2023-08-12T02:38:41;16.72;76.93
69503;SHT31;56704;54.242;12.442;2023-08-12T02:41:07;16.77;76.37
69503;SHT31;56704;54.242;12.442;2023-08-12T02:43:34;16.70;76.90
69503;SHT31;56704;54.242;12.442;2023-08-12T02:46:01;16.70;76.98
69503;SHT31;56704;54.242;12.442;2023-08-12T02:48:29;16.71;77.03
69503;SHT31;56704;54.242;12.442;2023-08-12T02:50:55;16.70;76.55
69503;SHT31;56704;54.242;12.442;2023-08-12T02:53:22;16.72;76.70
69503;SHT31;56704;54.242;12.442;2023-08-12T02:55:48;16.67;76.95
69503;SHT31;56704;54.242;12.442;2023-08-12T02:58:15;16.72;76.54
69503;SHT31;56704;54.242;12.442;2023-08-12T03:00:41;16.74;76.16
69503;SHT31;56704;54.242;12.442;2023-08-12T03:03:09;16.75;76.34
69503;SHT31;56704;54.242;12.442;2023-08-12T03:05:37;16.75;76.59
69503;SHT31;56704;54.242;12.442;2023-08-12T03:08:04;16.71;76.91
69503;SHT31;56704;54.242;12.442;2023-08-12T03:10:33;16.71;76.28
69503;SHT31;56704;54.242;12.442;2023-08-12T03:12:59;16.67;76.56
69503;SHT31;56704;54.242;12.442;2023-08-12T03:15:26;16.64;76.66
69503;SHT31;56704;54.242;12.442;2023-08-12T03:17:52;16.65;76.80
69503;SHT31;56704;54.242;12.442;2023-08-12T03:20:19;16.70;76.86
69503;SHT31;56704;54.242;12.442;2023-08-12T03:22:47;16.67;76.60
69503;SHT31;56704;54.242;12.442;2023-08-12T03:25:14;16.61;76.76
69503;SHT31;56704;54.242;12.442;2023-08-12T03:27:41;16.67;76.44
69503;SHT31;56704;54.242;12.442;2023-08-12T03:30:09;16.65;76.34
69503;SHT31;56704;54.242;12.442;2023-08-12T03:32:35;16.64;76.66
69503;SHT31;56704;54.242;12.442;2023-08-12T03:35:02;16.63;76.47
69503;SHT31;56704;54.242;12.442;2023-08-12T03:37:29;16.57;77.05
69503;SHT31;56704;54.242;12.442;2023-08-12T03:39:57;16.61;76.55
69503;SHT31;56704;54.242;12.442;2023-08-12T03:42:23;16.59;76.91
69503;SHT31;56704;54.242;12.442;2023-08-12T03:44:50;16.60;76.81
69503;SHT31;56704;54.242;12.442;2023-08-12T03:47:17;16.59;76.66
69503;SHT31;56704;54.242;12.442;2023-08-12T03:49:47;16.60;76.49
69503;SHT31;56704;54.242;12.442;2023-08-12T03:52:13;16.59;76.65
69503;SHT31;56704;54.242;12.442;2023-08-12T03:54:40;16.57;76.72
69503;SHT31;56704;54.242;12.442;2023-08-12T03:57:08;16.56;76.98
69503;SHT31;56704;54.242;12.442;2023-08-12T03:59:34;16.54;76.70
69503;SHT31;56704;54.242;12.442;2023-08-12T04:02:01;16.57;76.76
69503;SHT31;56704;54.242;12.442;2023-08-12T04:04:29;16.57;77.33
69503;SHT31;56704;54.242;12.442;2023-08-12T04:06:55;16.59;76.64
69503;SHT31;56704;54.242;12.442;2023-08-12T04:09:22;16.59;76.70
69503;SHT31;56704;54.242;12.442;2023-08-12T04:11:49;16.64;76.64
69503;SHT31;56704;54.242;12.442;2023-08-12T04:14:17;16.63;76.73
69503;SHT31;56704;54.242;12.442;2023-08-12T04:16:43;16.64;76.40
69503;SHT31;56704;54.242;12.442;2023-08-12T04:19:10;16.65;76.59
69503;SHT31;56704;54.242;12.442;2023-08-12T04:21:36;16.67;76.32
69503;SHT31;56704;54.242;12.442;2023-08-12T04:24:03;16.64;76.56
69503;SHT31;56704;54.242;12.442;2023-08-12T04:26:30;16.64;76.49
69503;SHT31;56704;54.242;12.442;2023-08-12T04:28:57;16.64;76.59
69503;SHT31;56704;54.242;12.442;2023-08-12T04:31:25;16.70;76.47
69503;SHT31;56704;54.242;12.442;2023-08-12T04:33:51;16.68;76.78
69503;SHT31;56704;54.242;12.442;2023-08-12T04:36:19;16.65;76.69
69503;SHT31;56704;54.242;12.442;2023-08-12T04:38:45;16.71;76.53
69503;SHT31;56704;54.242;12.442;2023-08-12T04:41:12;16.71;76.69
69503;SHT31;56704;54.242;12.442;2023-08-12T04:43:38;16.72;76.60
69503;SHT31;56704;54.242;12.442;2023-08-12T04:46:05;16.71;77.31
69503;SHT31;56704;54.242;12.442;2023-08-12T04:48:33;16.77;76.53
69503;SHT31;56704;54.242;12.442;2023-08-12T04:51:00;16.74;76.72
69503;SHT31;56704;54.242;12.442;2023-08-12T04:53:28;16.77;76.90
69503;SHT31;56704;54.242;12.442;2023-08-12T04:55:55;16.82;77.00
69503;SHT31;56704;54.242;12.442;2023-08-12T04:58:21;16.84;76.67
69503;SHT31;56704;54.242;12.442;2023-08-12T05:00:49;16.87;76.84
69503;SHT31;56704;54.242;12.442;2023-08-12T05:03:17;16.88;76.81
69503;SHT31;56704;54.242;12.442;2023-08-12T05:05:49;17.00;76.57
69503;SHT31;56704;54.242;12.442;2023-08-12T05:08:15;17.05;76.46
69503;SHT31;56704;54.242;12.442;2023-08-12T05:10:42;17.11;75.93
69503;SHT31;56704;54.242;12.442;2023-08-12T05:13:08;17.29;75.93
69503;SHT31;56704;54.242;12.442;2023-08-12T05:15:35;17.33;75.77
69503;SHT31;56704;54.242;12.442;2023-08-12T05:18:02;17.39;75.66
69503;SHT31;56704;54.242;12.442;2023-08-12T05:20:29;17.46;75.28
69503;SHT31;56704;54.242;12.442;2023-08-12T05:22:57;17.52;75.76
69503;SHT31;56704;54.242;12.442;2023-08-12T05:25:23;17.61;75.66
69503;SHT31;56704;54.242;12.442;2023-08-12T05:27:50;17.62;75.08
69503;SHT31;56704;54.242;12.442;2023-08-12T05:30:17;17.73;75.37
69503;SHT31;56704;54.242;12.442;2023-08-12T05:32:43;17.73;75.02
69503;SHT31;56704;54.242;12.442;2023-08-12T05:35:10;17.80;75.67
69503;SHT31;56704;54.242;12.442;2023-08-12T05:37:36;17.84;75.02
69503;SHT31;56704;54.242;12.442;2023-08-12T05:40:05;17.90;75.53
69503;SHT31;56704;54.242;12.442;2023-08-12T05:42:33;17.97;75.17
69503;SHT31;56704;54.242;12.442;2023-08-12T05:45:00;18.04;75.08
69503;SHT31;56704;54.242;12.442;2023-08-12T05:47:26;18.11;74.46
69503;SHT31;56704;54.242;12.442;2023-08-12T05:49:53;18.15;74.32
69503;SHT31;56704;54.242;12.442;2023-08-12T05:52:19;18.20;74.52
69503;SHT31;56704;54.242;12.442;2023-08-12T05:54:46;18.25;74.43
69503;SHT31;56704;54.242;12.442;2023-08-12T05:57:14;18.31;74.04
69503;SHT31;56704;54.242;12.442;2023-08-12T05:59:40;18.37;74.74
69503;SHT31;56704;54.242;12.442;2023-08-12T06:02:07;18.43;73.50
69503;SHT31;56704;54.242;12.442;2023-08-12T06:04:34;18.48;74.09
69503;SHT31;56704;54.242;12.442;2023-08-12T06:07:01;18.48;74.25
69503;SHT31;56704;54.242;12.442;2023-08-12T06:09:28;18.52;74.51
69503;SHT31;56704;54.242;12.442;2023-08-12T06:11:54;18.58;74.49
69503;SHT31;56704;54.242;12.442;2023-08-12T06:14:22;18.62;74.47
69503;SHT31;56704;54.242;12.442;2023-08-12T06:16:49;18.69;75.08
69503;SHT31;56704;54.242;12.442;2023-08-12T06:19:15;18.68;73.91
69503;SHT31;56704;54.242;12.442;2023-08-12T06:21:42;18.79;74.44
69503;SHT31;56704;54.242;12.442;2023-08-12T06:24:09;18.76;74.42
69503;SHT31;56704;54.242;12.442;2023-08-12T06:26:35;18.81;74.88
69503;SHT31;56704;54.242;12.442;2023-08-12T06:29:02;18.84;74.15
69503;SHT31;56704;54.242;12.442;2023-08-12T06:31:30;18.99;74.49
69503;SHT31;56704;54.242;12.442;2023-08-12T06:33:56;19.03;74.06
69503;SHT31;56704;54.242;12.442;2023-08-12T06:36:23;18.98;74.21
69503;SHT31;56704;54.242;12.442;2023-08-12T06:38:49;19.07;74.09
69503;SHT31;56704;54.242;12.442;2023-08-12T06:41:16;19.17;73.27
69503;SHT31;56704;54.242;12.442;2023-08-12T06:43:43;19.33;73.52
69503;SHT31;56704;54.242;12.442;2023-08-12T06:46:09;19.40;72.76
69503;SHT31;56704;54.242;12.442;2023-08-12T06:48:37;19.46;73.08
69503;SHT31;56704;54.242;12.442;2023-08-12T06:51:04;19.60;73.32
69503;SHT31;56704;54.242;12.442;2023-08-12T06:53:35;19.66;72.33
69503;SHT31;56704;54.242;12.442;2023-08-12T06:56:02;19.71;71.71
69503;SHT31;56704;54.242;12.442;2023-08-12T06:58:29;19.85;71.33
69503;SHT31;56704;54.242;12.442;2023-08-12T07:00:55;19.94;70.31
69503;SHT31;56704;54.242;12.442;2023-08-12T07:03:22;20.07;70.54
69503;SHT31;56704;54.242;12.442;2023-08-12T07:05:50;20.14;69.56
69503;SHT31;56704;54.242;12.442;2023-08-12T07:08:17;20.22;69.22
69503;SHT31;56704;54.242;12.442;2023-08-12T07:10:43;20.29;68.99
69503;SHT31;56704;54.242;12.442;2023-08-12T07:13:10;20.28;68.84
69503;SHT31;56704;54.242;12.442;2023-08-12T07:15:36;20.41;68.56
69503;SHT31;56704;54.242;12.442;2023-08-12T07:18:04;20.43;68.74
69503;SHT31;56704;54.242;12.442;2023-08-12T07:20:30;20.59;68.36
69503;SHT31;56704;54.242;12.442;2023-08-12T07:22:58;20.70;68.31
69503;SHT31;56704;54.242;12.442;2023-08-12T07:25:25;20.79;68.04
69503;SHT31;56704;54.242;12.442;2023-08-12T07:27:51;21.07;67.90
69503;SHT31;56704;54.242;12.442;2023-08-12T07:30:18;21.27;66.43
69503;SHT31;56704;54.242;12.442;2023-08-12T07:32:45;21.34;66.18
69503;SHT31;56704;54.242;12.442;2023-08-12T07:35:11;21.13;66.89
69503;SHT31;56704;54.242;12.442;2023-08-12T07:37:38;21.21;67.09
69503;SHT31;56704;54.242;12.442;2023-08-12T07:40:07;21.10;67.04
69503;SHT31;56704;54.242;12.442;2023-08-12T07:42:34;21.00;67.23
69503;SHT31;56704;54.242;12.442;2023-08-12T07:45:00;21.08;67.45
69503;SHT31;56704;54.242;12.442;2023-08-12T07:47:27;21.24;67.73
69503;SHT31;56704;54.242;12.442;2023-08-12T07:49:54;21.33;67.39
69503;SHT31;56704;54.242;12.442;2023-08-12T07:52:20;21.55;67.22
69503;SHT31;56704;54.242;12.442;2023-08-12T07:54:47;21.81;66.26
69503;SHT31;56704;54.242;12.442;2023-08-12T07:57:15;22.09;65.22
69503;SHT31;56704;54.242;12.442;2023-08-12T07:59:41;22.20;65.33
69503;SHT31;56704;54.242;12.442;2023-08-12T08:02:08;22.28;66.02
69503;SHT31;56704;54.242;12.442;2023-08-12T08:04:35;22.35;65.80
69503;SHT31;56704;54.242;12.442;2023-08-12T08:07:01;22.35;65.33
69503;SHT31;56704;54.242;12.442;2023-08-12T08:09:28;22.30;65.01
69503;SHT31;56704;54.242;12.442;2023-08-12T08:11:55;22.28;65.62
69503;SHT31;56704;54.242;12.442;2023-08-12T08:14:23;22.35;64.87
69503;SHT31;56704;54.242;12.442;2023-08-12T08:16:49;22.45;65.11
69503;SHT31;56704;54.242;12.442;2023-08-12T08:19:16;22.59;64.71
69503;SHT31;56704;54.242;12.442;2023-08-12T08:21:42;22.64;64.50
69503;SHT31;56704;54.242;12.442;2023-08-12T08:24:09;22.84;64.92
69503;SHT31;56704;54.242;12.442;2023-08-12T08:26:38;22.81;64.73
69503;SHT31;56704;54.242;12.442;2023-08-12T08:29:05;22.93;63.87
69503;SHT31;56704;54.242;12.442;2023-08-12T08:31:34;22.93;62.66
69503;SHT31;56704;54.242;12.442;2023-08-12T08:34:00;22.96;62.66
69503;SHT31;56704;54.242;12.442;2023-08-12T08:36:27;23.18;61.88
69503;SHT31;56704;54.242;12.442;2023-08-12T08:38:53;23.34;63.12
69503;SHT31;56704;54.242;12.442;2023-08-12T08:41:21;23.19;62.04
69503;SHT31;56704;54.242;12.442;2023-08-12T08:43:48;23.29;62.73
69503;SHT31;56704;54.242;12.442;2023-08-12T08:46:15;23.34;61.63
69503;SHT31;56704;54.242;12.442;2023-08-12T08:48:43;23.75;60.82
69503;SHT31;56704;54.242;12.442;2023-08-12T08:51:11;23.92;59.72
69503;SHT31;56704;54.242;12.442;2023-08-12T08:53:38;24.20;58.79
69503;SHT31;56704;54.242;12.442;2023-08-12T08:56:07;24.29;58.10
69503;SHT31;56704;54.242;12.442;2023-08-12T08:58:37;24.36;58.65
69503;SHT31;56704;54.242;12.442;2023-08-12T09:01:05;24.54;58.71
69503;SHT31;56704;54.242;12.442;2023-08-12T09:03:33;24.29;57.92
69503;SHT31;56704;54.242;12.442;2023-08-12T09:06:03;24.50;59.36
69503;SHT31;56704;54.242;12.442;2023-08-12T09:08:31;24.31;58.39
69503;SHT31;56704;54.242;12.442;2023-08-12T09:10:59;24.21;58.70
69503;SHT31;56704;54.242;12.442;2023-08-12T09:13:26;24.20;58.94
69503;SHT31;56704;54.242;12.442;2023-08-12T09:15:53;24.26;59.84
69503;SHT31;56704;54.242;12.442;2023-08-12T09:18:20;24.46;60.08
69503;SHT31;56704;54.242;12.442;2023-08-12T09:20:49;24.41;58.57
69503;SHT31;56704;54.242;12.442;2023-08-12T09:23:17;24.67;58.94
69503;SHT31;56704;54.242;12.442;2023-08-12T09:25:44;24.57;59.18
69503;SHT31;56704;54.242;12.442;2023-08-12T09:28:12;24.70;58.36
69503;SHT31;56704;54.242;12.442;2023-08-12T09:30:39;24.56;58.08
69503;SHT31;56704;54.242;12.442;2023-08-12T09:33:07;24.60;58.04
69503;SHT31;56704;54.242;12.442;2023-08-12T09:35:35;24.68;58.35
69503;SHT31;56704;54.242;12.442;2023-08-12T09:38:03;24.67;58.12
69503;SHT31;56704;54.242;12.442;2023-08-12T09:40:33;24.64;58.69
69503;SHT31;56704;54.242;12.442;2023-08-12T09:43:00;24.80;58.39
69503;SHT31;56704;54.242;12.442;2023-08-12T09:45:27;24.81;58.40
69503;SHT31;56704;54.242;12.442;2023-08-12T09:47:54;25.02;58.33
69503;SHT31;56704;54.242;12.442;2023-08-12T09:50:21;25.14;57.64
69503;SHT31;56704;54.242;12.442;2023-08-12T09:52:48;25.16;56.94
69503;SHT31;56704;54.242;12.442;2023-08-12T09:55:16;25.22;57.27
69503;SHT31;56704;54.242;12.442;2023-08-12T09:57:48;25.59;56.66
69503;SHT31;56704;54.242;12.442;2023-08-12T10:00:16;25.96;55.90
69503;SHT31;56704;54.242;12.442;2023-08-12T10:02:44;26.04;54.79
69503;SHT31;56704;54.242;12.442;2023-08-12T10:05:14;26.24;55.21
69503;SHT31;56704;54.242;12.442;2023-08-12T10:07:43;26.52;54.39
69503;SHT31;56704;54.242;12.442;2023-08-12T10:10:11;26.78;54.20
69503;SHT31;56704;54.242;12.442;2023-08-12T10:12:38;27.27;53.89
69503;SHT31;56704;54.242;12.442;2023-08-12T10:15:08;27.42;52.75
69503;SHT31;56704;54.242;12.442;2023-08-12T10:17:36;27.67;52.61
69503;SHT31;56704;54.242;12.442;2023-08-12T10:20:04;27.68;52.71
69503;SHT31;56704;54.242;12.442;2023-08-12T10:22:33;27.97;50.77
69503;SHT31;56704;54.242;12.442;2023-08-12T10:25:02;27.90;52.48
69503;SHT31;56704;54.242;12.442;2023-08-12T10:27:29;28.58;51.84
69503;SHT31;56704;54.242;12.442;2023-08-12T10:29:55;28.83;49.53
69503;SHT31;56704;54.242;12.442;2023-08-12T10:32:24;28.68;48.83
69503;SHT31;56704;54.242;12.442;2023-08-12T10:34:54;29.24;48.93
69503;SHT31;56704;54.242;12.442;2023-08-12T10:37:23;29.49;47.64
69503;SHT31;56704;54.242;12.442;2023-08-12T10:39:51;28.84;47.95
69503;SHT31;56704;54.242;12.442;2023-08-12T10:42:42;29.16;46.06
69503;SHT31;56704;54.242;12.442;2023-08-12T10:45:10;29.21;45.26
69503;SHT31;56704;54.242;12.442;2023-08-12T10:47:43;29.29;45.56
69503;SHT31;56704;54.242;12.442;2023-08-12T10:50:17;28.78;47.35
69503;SHT31;56704;54.242;12.442;2023-08-12T10:52:44;28.72;47.00
69503;SHT31;56704;54.242;12.442;2023-08-12T10:55:16;28.73;45.55
69503;SHT31;56704;54.242;12.442;2023-08-12T10:57:43;28.84;46.16
69503;SHT31;56704;54.242;12.442;2023-08-12T11:00:11;29.29;46.91
69503;SHT31;56704;54.242;12.442;2023-08-12T11:02:39;29.41;46.89
69503;SHT31;56704;54.242;12.442;2023-08-12T11:05:12;30.00;45.35
69503;SHT31;56704;54.242;12.442;2023-08-12T11:07:41;30.39;44.11
69503;SHT31;56704;54.242;12.442;2023-08-12T11:10:13;30.73;44.55
69503;SHT31;56704;54.242;12.442;2023-08-12T11:12:42;30.31;44.05
69503;SHT31;56704;54.242;12.442;2023-08-12T11:15:12;30.44;44.34
69503;SHT31;56704;54.242;12.442;2023-08-12T11:17:39;30.29;43.17
69503;SHT31;56704;54.242;12.442;2023-08-12T11:20:08;30.47;43.94
69503;SHT31;56704;54.242;12.442;2023-08-12T11:22:38;30.31;43.61
69503;SHT31;56704;54.242;12.442;2023-08-12T11:25:06;30.62;44.55
69503;SHT31;56704;54.242;12.442;2023-08-12T11:27:39;30.43;44.70
69503;SHT31;56704;54.242;12.442;2023-08-12T11:30:08;30.52;42.68
69503;SHT31;56704;54.242;12.442;2023-08-12T11:32:36;30.69;44.24
69503;SHT31;56704;54.242;12.442;2023-08-12T11:35:03;30.15;44.07
69503;SHT31;56704;54.242;12.442;2023-08-12T11:37:31;30.15;44.13
69503;SHT31;56704;54.242;12.442;2023-08-12T11:40:01;30.19;44.31
69503;SHT31;56704;54.242;12.442;2023-08-12T11:42:28;30.37;44.07
69503;SHT31;56704;54.242;12.442;2023-08-12T11:44:55;30.02;44.95
69503;SHT31;56704;54.242;12.442;2023-08-12T11:47:21;29.71;45.97
69503;SHT31;56704;54.242;12.442;2023-08-12T11:49:48;29.81;46.95
69503;SHT31;56704;54.242;12.442;2023-08-12T11:52:15;30.02;46.56
69503;SHT31;56704;54.242;12.442;2023-08-12T11:54:42;29.85;46.36
69503;SHT31;56704;54.242;12.442;2023-08-12T11:57:10;29.78;45.89
69503;SHT31;56704;54.242;12.442;2023-08-12T11:59:36;29.80;46.25
69503;SHT31;56704;54.242;12.442;2023-08-12T12:02:04;30.06;45.72
69503;SHT31;56704;54.242;12.442;2023-08-12T12:04:31;30.72;44.65
69503;SHT31;56704;54.242;12.442;2023-08-12T12:06:58;30.36;45.09
69503;SHT31;56704;54.242;12.442;2023-08-12T12:09:25;30.01;46.32
69503;SHT31;56704;54.242;12.442;2023-08-12T12:11:52;29.80;46.80
69503;SHT31;56704;54.242;12.442;2023-08-12T12:14:24;29.17;47.27
69503;SHT31;56704;54.242;12.442;2023-08-12T12:16:50;29.35;46.64
69503;SHT31;56704;54.242;12.442;2023-08-12T12:19:18;29.09;47.53
69503;SHT31;56704;54.242;12.442;2023-08-12T12:21:46;29.62;48.65
69503;SHT31;56704;54.242;12.442;2023-08-12T12:24:13;29.46;47.59
69503;SHT31;56704;54.242;12.442;2023-08-12T12:26:40;29.24;47.77
69503;SHT31;56704;54.242;12.442;2023-08-12T12:29:08;28.69;49.40
69503;SHT31;56704;54.242;12.442;2023-08-12T12:31:38;28.75;50.41
69503;SHT31;56704;54.242;12.442;2023-08-12T12:34:06;28.52;49.99
69503;SHT31;56704;54.242;12.442;2023-08-12T12:36:36;28.41;50.51
69503;SHT31;56704;54.242;12.442;2023-08-12T12:39:03;28.80;50.63
69503;SHT31;56704;54.242;12.442;2023-08-12T12:41:30;28.90;50.25
69503;SHT31;56704;54.242;12.442;2023-08-12T12:43:59;29.16;48.89
69503;SHT31;56704;54.242;12.442;2023-08-12T12:46:26;29.64;48.34
69503;SHT31;56704;54.242;12.442;2023-08-12T12:48:54;29.86;47.98
69503;SHT31;56704;54.242;12.442;2023-08-12T12:51:20;30.62;46.47
69503;SHT31;56704;54.242;12.442;2023-08-12T12:53:47;30.32;44.96
69503;SHT31;56704;54.242;12.442;2023-08-12T12:56:13;31.24;44.63
69503;SHT31;56704;54.242;12.442;2023-08-12T12:58:40;30.83;45.09
69503;SHT31;56704;54.242;12.442;2023-08-12T13:01:07;30.52;44.56
69503;SHT31;56704;54.242;12.442;2023-08-12T13:03:33;31.01;44.11
69503;SHT31;56704;54.242;12.442;2023-08-12T13:06:01;30.70;44.76
69503;SHT31;56704;54.242;12.442;2023-08-12T13:08:29;30.95;43.71
69503;SHT31;56704;54.242;12.442;2023-08-12T13:10:56;31.69;44.07
69503;SHT31;56704;54.242;12.442;2023-08-12T13:13:23;31.84;42.64
69503;SHT31;56704;54.242;12.442;2023-08-12T13:15:49;32.03;42.46
69503;SHT31;56704;54.242;12.442;2023-08-12T13:18:16;31.23;44.57
69503;SHT31;56704;54.242;12.442;2023-08-12T13:20:43;31.11;45.58
69503;SHT31;56704;54.242;12.442;2023-08-12T13:23:11;30.56;46.90
69503;SHT31;56704;54.242;12.442;2023-08-12T13:25:37;30.31;46.35
69503;SHT31;56704;54.242;12.442;2023-08-12T13:28:05;30.76;46.19
69503;SHT31;56704;54.242;12.442;2023-08-12T13:30:32;31.64;44.07
69503;SHT31;56704;54.242;12.442;2023-08-12T13:32:58;31.99;43.59
69503;SHT31;56704;54.242;12.442;2023-08-12T13:35:25;31.76;43.37
69503;SHT31;56704;54.242;12.442;2023-08-12T13:37:52;31.64;44.99
69503;SHT31;56704;54.242;12.442;2023-08-12T13:40:20;31.75;43.34
69503;SHT31;56704;54.242;12.442;2023-08-12T13:42:46;31.24;45.52
69503;SHT31;56704;54.242;12.442;2023-08-12T13:45:13;29.82;47.65
69503;SHT31;56704;54.242;12.442;2023-08-12T13:47:42;29.92;47.91
69503;SHT31;56704;54.242;12.442;2023-08-12T13:50:09;29.35;49.48
69503;SHT31;56704;54.242;12.442;2023-08-12T13:52:36;29.04;51.06
69503;SHT31;56704;54.242;12.442;2023-08-12T13:55:03;29.13;50.25
69503;SHT31;56704;54.242;12.442;2023-08-12T13:57:31;28.68;49.86
69503;SHT31;56704;54.242;12.442;2023-08-12T13:59:58;29.00;49.55
69503;SHT31;56704;54.242;12.442;2023-08-12T14:02:24;29.19;50.03
69503;SHT31;56704;54.242;12.442;2023-08-12T14:04:51;28.53;50.14
69503;SHT31;56704;54.242;12.442;2023-08-12T14:07:18;28.24;50.22
69503;SHT31;56704;54.242;12.442;2023-08-12T14:09:46;28.19;50.68
69503;SHT31;56704;54.242;12.442;2023-08-12T14:12:13;28.02;51.75
69503;SHT31;56704;54.242;12.442;2023-08-12T14:14:41;27.98;52.09
69503;SHT31;56704;54.242;12.442;2023-08-12T14:17:07;27.78;54.02
69503;SHT31;56704;54.242;12.442;2023-08-12T14:19:38;27.42;55.17
69503;SHT31;56704;54.242;12.442;2023-08-12T14:22:05;27.23;56.13
69503;SHT31;56704;54.242;12.442;2023-08-12T14:24:32;27.15;56.47
69503;SHT31;56704;54.242;12.442;2023-08-12T14:26:59;26.85;56.77
69503;SHT31;56704;54.242;12.442;2023-08-12T14:29:25;26.72;57.86
69503;SHT31;56704;54.242;12.442;2023-08-12T14:31:53;26.79;57.15
69503;SHT31;56704;54.242;12.442;2023-08-12T14:34:20;26.74;58.00
69503;SHT31;56704;54.242;12.442;2023-08-12T14:36:46;26.89;57.97
69503;SHT31;56704;54.242;12.442;2023-08-12T14:39:13;26.65;58.23
69503;SHT31;56704;54.242;12.442;2023-08-12T14:41:40;26.25;58.95
69503;SHT31;56704;54.242;12.442;2023-08-12T14:44:06;26.11;59.14
69503;SHT31;56704;54.242;12.442;2023-08-12T14:46:33;26.18;59.17
69503;SHT31;56704;54.242;12.442;2023-08-12T14:49:01;25.87;59.35
69503;SHT31;56704;54.242;12.442;2023-08-12T14:51:27;25.87;59.04
69503;SHT31;56704;54.242;12.442;2023-08-12T14:53:55;25.65;59.14
69503;SHT31;56704;54.242;12.442;2023-08-12T14:56:21;25.63;59.54
69503;SHT31;56704;54.242;12.442;2023-08-12T14:58:48;25.60;59.74
69503;SHT31;56704;54.242;12.442;2023-08-12T15:01:15;25.47;59.77
69503;SHT31;56704;54.242;12.442;2023-08-12T15:03:42;25.31;59.65
69503;SHT31;56704;54.242;12.442;2023-08-12T15:06:10;25.35;59.89
69503;SHT31;56704;54.242;12.442;2023-08-12T15:08:37;25.19;59.97
69503;SHT31;56704;54.242;12.442;2023-08-12T15:11:03;25.12;60.47
69503;SHT31;56704;54.242;12.442;2023-08-12T15:13:30;25.14;60.44
69503;SHT31;56704;54.242;12.442;2023-08-12T15:15:57;25.09;61.45